sensor_id;sensor_type;location;lat;lon;timestamp;temperature;humidity
25440;DHT22;13365;52.208;5.488;2024-01-25T00:00:47;11.40;99.90
25440;DHT22;13365;52.208;5.488;2024-01-25T00:03:14;11.20;99.90
25440;DHT22;13365;52.208;5.488;2024-01-25T00:05:39;11.30;99.90
25440;DHT22;13365;52.208;5.488;2024-01-25T00:08:05;11.10;99.90
25440;DHT22;13365;52.208;5.488;2024-01-25T00:10:31;11.10;99.90
25440;DHT22;13365;52.208;5.488;2024-01-25T00:12:56;11.10;99.90
25440;DHT22;13365;52.208;5.488;2024-01-25T00:15:22;11.10;99.90
25440;DHT22;13365;52.208;5.488;2024-01-25T00:17:48;11.40;99.90
25440;DHT22;13365;52.208;5.488;2024-01-25T00:20:13;11.50;99.90
25440;DHT22;13365;52.208;5.488;2024-01-25T00:22:39;11.60;99.90
25440;DHT22;13365;52.208;5.488;2024-01-25T00:25:05;11.30;99.90
25440;DHT22;13365;52.208;5.488;2024-01-25T00:27:33;11.20;99.90
25440;DHT22;13365;52.208;5.488;2024-01-25T00:29:59;11.40;99.90
25440;DHT22;13365;52.208;5.488;2024-01-25T00:32:24;11.40;99.90
25440;DHT22;13365;52.208;5.488;2024-01-25T00:34:50;11.40;99.90
25440;DHT22;13365;52.208;5.488;2024-01-25T00:37:16;11.30;99.90
25440;DHT22;13365;52.208;5.488;2024-01-25T00:39:42;11.40;99.90
25440;DHT22;13365;52.208;5.488;2024-01-25T00:42:12;11.50;99.90
25440;DHT22;13365;52.208;5.488;2024-01-25T00:44:38;11.40;99.90
25440;DHT22;13365;52.208;5.488;2024-01-25T00:47:04;11.50;99.90
25440;DHT22;13365;52.208;5.488;2024-01-25T00:49:30;11.50;99.90
25440;DHT22;13365;52.208;5.488;2024-01-25T00:51:59;11.50;99.90
25440;DHT22;13365;52.208;5.488;2024-01-25T00:54:28;11.60;99.90
25440;DHT22;13365;52.208;5.488;2024-01-25T00:56:53;11.50;99.90
25440;DHT22;13365;52.208;5.488;2024-01-25T00:59:19;11.30;99.90
25440;DHT22;13365;52.208;5.488;2024-01-25T01:01:48;11.50;99.90
25440;DHT22;13365;52.208;5.488;2024-01-25T01:04:16;11.70;99.90
25440;DHT22;13365;52.208;5.488;2024-01-25T01:06:42;11.70;99.90
25440;DHT22;13365;52.208;5.488;2024-01-25T01:09:07;11.20;99.90
25440;DHT22;13365;52.208;5.488;2024-01-25T01:11:33;11.00;99.90
25440;DHT22;13365;52.208;5.488;2024-01-25T01:13:59;10.90;99.90
25440;DHT22;13365;52.208;5.488;2024-01-25T01:16:24;11.30;99.90
25440;DHT22;13365;52.208;5.488;2024-01-25T01:18:50;11.20;99.90
25440;DHT22;13365;52.208;5.488;2024-01-25T01:21:15;11.00;99.90
25440;DHT22;13365;52.208;5.488;2024-01-25T01:23:41;11.10;99.90
25440;DHT22;13365;52.208;5.488;2024-01-25T01:26:07;10.80;99.90
25440;DHT22;13365;52.208;5.488;2024-01-25T01:28:33;10.80;99.90
25440;DHT22;13365;52.208;5.488;2024-01-25T01:30:58;11.00;99.90
25440;DHT22;13365;52.208;5.488;2024-01-25T01:33:24;11.00;99.90
25440;DHT22;13365;52.208;5.488;2024-01-25T01:35:49;11.00;99.90
25440;DHT22;13365;52.208;5.488;2024-01-25T01:38:15;10.90;99.90
25440;DHT22;13365;52.208;5.488;2024-01-25T01:40:40;10.90;99.90
25440;DHT22;13365;52.208;5.488;2024-01-25T01:43:06;10.80;99.90
25440;DHT22;13365;52.208;5.488;2024-01-25T01:45:32;10.90;99.90
25440;DHT22;13365;52.208;5.488;2024-01-25T01:47:58;10.80;99.90
25440;DHT22;13365;52.208;5.488;2024-01-25T01:50:24;10.90;99.90
25440;DHT22;13365;52.208;5.488;2024-01-25T01:52:50;11.00;99.90
25440;DHT22;13365;52.208;5.488;2024-01-25T01:55:17;10.80;99.90
25440;DHT22;13365;52.208;5.488;2024-01-25T01:57:43;10.90;99.90
25440;DHT22;13365;52.208;5.488;2024-01-25T02:00:10;10.80;99.90
25440;DHT22;13365;52.208;5.488;2024-01-25T02:02:35;10.90;99.90
25440;DHT22;13365;52.208;5.488;2024-01-25T02:05:01;10.80;99.90
25440;DHT22;13365;52.208;5.488;2024-01-25T02:07:28;10.90;99.90
25440;DHT22;13365;52.208;5.488;2024-01-25T02:09:53;11.00;99.90
25440;DHT22;13365;52.208;5.488;2024-01-25T02:12:19;11.20;99.90
25440;DHT22;13365;52.208;5.488;2024-01-25T02:14:45;11.20;99.90
25440;DHT22;13365;52.208;5.488;2024-01-25T02:17:11;11.00;99.90
25440;DHT22;13365;52.208;5.488;2024-01-25T02:19:36;11.10;99.90
25440;DHT22;13365;52.208;5.488;2024-01-25T02:22:04;11.10;99.90
25440;DHT22;13365;52.208;5.488;2024-01-25T02:24:30;11.00;99.90
25440;DHT22;13365;52.208;5.488;2024-01-25T02:26:56;11.00;99.90
25440;DHT22;13365;52.208;5.488;2024-01-25T02:29:22;11.00;99.90
25440;DHT22;13365;52.208;5.488;2024-01-25T02:31:47;10.90;99.90
25440;DHT22;13365;52.208;5.488;2024-01-25T02:34:13;11.00;99.90
25440;DHT22;13365;52.208;5.488;2024-01-25T02:36:38;11.30;99.90
25440;DHT22;13365;52.208;5.488;2024-01-25T02:39:04;11.40;99.90
25440;DHT22;13365;52.208;5.488;2024-01-25T02:41:31;11.50;99.90
25440;DHT22;13365;52.208;5.488;2024-01-25T02:43:57;11.50;99.90
25440;DHT22;13365;52.208;5.488;2024-01-25T02:46:22;11.50;99.90
25440;DHT22;13365;52.208;5.488;2024-01-25T02:48:48;11.40;99.90
25440;DHT22;13365;52.208;5.488;2024-01-25T02:51:14;11.50;99.90
25440;DHT22;13365;52.208;5.488;2024-01-25T02:53:40;11.60;99.90
25440;DHT22;13365;52.208;5.488;2024-01-25T02:56:06;11.60;99.90
25440;DHT22;13365;52.208;5.488;2024-01-25T02:58:32;11.60;99.90
25440;DHT22;13365;52.208;5.488;2024-01-25T03:00:58;11.40;99.90
25440;DHT22;13365;52.208;5.488;2024-01-25T03:03:23;11.10;99.90
25440;DHT22;13365;52.208;5.488;2024-01-25T03:05:50;10.80;99.90
25440;DHT22;13365;52.208;5.488;2024-01-25T03:08:16;10.60;99.90
25440;DHT22;13365;52.208;5.488;2024-01-25T03:10:42;10.50;99.90
25440;DHT22;13365;52.208;5.488;2024-01-25T03:13:07;10.60;99.90
25440;DHT22;13365;52.208;5.488;2024-01-25T03:15:33;10.80;99.90
25440;DHT22;13365;52.208;5.488;2024-01-25T03:17:58;10.90;99.90
25440;DHT22;13365;52.208;5.488;2024-01-25T03:20:24;11.00;99.90
25440;DHT22;13365;52.208;5.488;2024-01-25T03:22:50;11.10;99.90
25440;DHT22;13365;52.208;5.488;2024-01-25T03:25:15;11.10;99.90
25440;DHT22;13365;52.208;5.488;2024-01-25T03:27:41;11.10;99.90
25440;DHT22;13365;52.208;5.488;2024-01-25T03:30:07;11.00;99.90
25440;DHT22;13365;52.208;5.488;2024-01-25T03:32:35;11.00;99.90
25440;DHT22;13365;52.208;5.488;2024-01-25T03:35:01;11.00;99.90
25440;DHT22;13365;52.208;5.488;2024-01-25T03:37:27;10.80;99.90
25440;DHT22;13365;52.208;5.488;2024-01-25T03:39:53;10.80;99.90
25440;DHT22;13365;52.208;5.488;2024-01-25T03:42:18;10.70;99.90
25440;DHT22;13365;52.208;5.488;2024-01-25T03:44:44;10.70;99.90
25440;DHT22;13365;52.208;5.488;2024-01-25T03:47:10;10.60;99.90
25440;DHT22;13365;52.208;5.488;2024-01-25T03:49:36;10.40;99.90
25440;DHT22;13365;52.208;5.488;2024-01-25T03:52:02;10.40;99.90
25440;DHT22;13365;52.208;5.488;2024-01-25T03:54:28;10.40;99.90
25440;DHT22;13365;52.208;5.488;2024-01-25T03:56:53;10.50;99.90
25440;DHT22;13365;52.208;5.488;2024-01-25T03:59:19;10.40;99.90
25440;DHT22;13365;52.208;5.488;2024-01-25T04:01:44;10.20;99.90
25440;DHT22;13365;52.208;5.488;2024-01-25T04:04:10;9.90;99.90
25440;DHT22;13365;52.208;5.488;2024-01-25T04:06:42;9.70;99.90
25440;DHT22;13365;52.208;5.488;2024-01-25T04:09:12;9.70;99.90
25440;DHT22;13365;52.208;5.488;2024-01-25T04:11:39;9.70;99.90
25440;DHT22;13365;52.208;5.488;2024-01-25T04:14:05;9.70;99.90
25440;DHT22;13365;52.208;5.488;2024-01-25T04:16:31;9.70;99.90
25440;DHT22;13365;52.208;5.488;2024-01-25T04:18:57;9.50;99.90
25440;DHT22;13365;52.208;5.488;2024-01-25T04:21:22;9.60;99.90
25440;DHT22;13365;52.208;5.488;2024-01-25T04:23:48;9.60;99.90
25440;DHT22;13365;52.208;5.488;2024-01-25T04:26:15;9.60;99.90
25440;DHT22;13365;52.208;5.488;2024-01-25T04:28:42;9.60;99.90
25440;DHT22;13365;52.208;5.488;2024-01-25T04:31:07;9.60;99.90
25440;DHT22;13365;52.208;5.488;2024-01-25T04:33:33;9.70;99.90
25440;DHT22;13365;52.208;5.488;2024-01-25T04:35:59;9.60;99.90
25440;DHT22;13365;52.208;5.488;2024-01-25T04:38:25;9.40;99.90
25440;DHT22;13365;52.208;5.488;2024-01-25T04:40:50;9.50;99.90
25440;DHT22;13365;52.208;5.488;2024-01-25T04:43:16;9.50;99.90
25440;DHT22;13365;52.208;5.488;2024-01-25T04:45:42;9.50;99.90
25440;DHT22;13365;52.208;5.488;2024-01-25T04:48:08;9.60;99.90
25440;DHT22;13365;52.208;5.488;2024-01-25T04:50:33;9.50;99.90
25440;DHT22;13365;52.208;5.488;2024-01-25T04:53:01;9.70;99.90
25440;DHT22;13365;52.208;5.488;2024-01-25T04:55:27;9.80;99.90
25440;DHT22;13365;52.208;5.488;2024-01-25T04:57:53;10.00;99.90
25440;DHT22;13365;52.208;5.488;2024-01-25T05:00:21;10.00;99.90
25440;DHT22;13365;52.208;5.488;2024-01-25T05:02:47;10.20;99.90
25440;DHT22;13365;52.208;5.488;2024-01-25T05:05:14;10.20;99.90
25440;DHT22;13365;52.208;5.488;2024-01-25T05:07:40;10.00;99.90
25440;DHT22;13365;52.208;5.488;2024-01-25T05:10:06;10.00;99.90
25440;DHT22;13365;52.208;5.488;2024-01-25T05:12:32;10.00;99.90
25440;DHT22;13365;52.208;5.488;2024-01-25T05:14:58;10.00;99.90
25440;DHT22;13365;52.208;5.488;2024-01-25T05:17:24;9.90;99.90
25440;DHT22;13365;52.208;5.488;2024-01-25T05:19:49;9.80;99.90
25440;DHT22;13365;52.208;5.488;2024-01-25T05:22:15;9.80;99.90
25440;DHT22;13365;52.208;5.488;2024-01-25T05:24:41;9.70;99.90
25440;DHT22;13365;52.208;5.488;2024-01-25T05:27:07;9.70;99.90
25440;DHT22;13365;52.208;5.488;2024-01-25T05:29:33;9.70;99.90
25440;DHT22;13365;52.208;5.488;2024-01-25T05:31:58;9.80;99.90
25440;DHT22;13365;52.208;5.488;2024-01-25T05:34:24;9.70;99.90
25440;DHT22;13365;52.208;5.488;2024-01-25T05:36:50;9.70;99.90
25440;DHT22;13365;52.208;5.488;2024-01-25T05:39:15;9.60;99.90
25440;DHT22;13365;52.208;5.488;2024-01-25T05:41:42;9.70;99.90
25440;DHT22;13365;52.208;5.488;2024-01-25T05:44:11;9.70;99.90
25440;DHT22;13365;52.208;5.488;2024-01-25T05:46:36;9.70;99.90
25440;DHT22;13365;52.208;5.488;2024-01-25T05:49:02;9.70;99.90
25440;DHT22;13365;52.208;5.488;2024-01-25T05:51:28;9.70;99.90
25440;DHT22;13365;52.208;5.488;2024-01-25T05:53:53;9.50;99.90
25440;DHT22;13365;52.208;5.488;2024-01-25T05:56:19;9.40;99.90
25440;DHT22;13365;52.208;5.488;2024-01-25T05:58:45;9.30;99.90
25440;DHT22;13365;52.208;5.488;2024-01-25T06:01:10;9.30;99.90
25440;DHT22;13365;52.208;5.488;2024-01-25T06:03:36;9.30;99.90
25440;DHT22;13365;52.208;5.488;2024-01-25T06:06:01;9.30;99.90
25440;DHT22;13365;52.208;5.488;2024-01-25T06:08:27;9.20;99.90
25440;DHT22;13365;52.208;5.488;2024-01-25T06:10:53;9.20;99.90
25440;DHT22;13365;52.208;5.488;2024-01-25T06:13:18;9.30;99.90
25440;DHT22;13365;52.208;5.488;2024-01-25T06:15:44;9.10;99.90
25440;DHT22;13365;52.208;5.488;2024-01-25T06:18:09;9.10;99.90
25440;DHT22;13365;52.208;5.488;2024-01-25T06:20:35;9.00;99.90
25440;DHT22;13365;52.208;5.488;2024-01-25T06:23:01;9.00;99.90
25440;DHT22;13365;52.208;5.488;2024-01-25T06:25:26;9.20;99.90
25440;DHT22;13365;52.208;5.488;2024-01-25T06:27:56;9.10;99.90
25440;DHT22;13365;52.208;5.488;2024-01-25T06:30:22;9.40;99.90
25440;DHT22;13365;52.208;5.488;2024-01-25T06:32:48;9.20;99.90
25440;DHT22;13365;52.208;5.488;2024-01-25T06:35:14;9.00;99.90
25440;DHT22;13365;52.208;5.488;2024-01-25T06:37:40;9.00;99.90
25440;DHT22;13365;52.208;5.488;2024-01-25T06:40:07;8.90;99.90
25440;DHT22;13365;52.208;5.488;2024-01-25T06:42:33;8.80;99.90
25440;DHT22;13365;52.208;5.488;2024-01-25T06:44:58;8.80;99.90
25440;DHT22;13365;52.208;5.488;2024-01-25T06:47:24;8.90;99.90
25440;DHT22;13365;52.208;5.488;2024-01-25T06:49:49;8.90;99.90
25440;DHT22;13365;52.208;5.488;2024-01-25T06:52:17;8.90;99.90
25440;DHT22;13365;52.208;5.488;2024-01-25T06:54:43;8.90;99.90
25440;DHT22;13365;52.208;5.488;2024-01-25T06:57:08;8.90;99.90
25440;DHT22;13365;52.208;5.488;2024-01-25T06:59:34;9.00;99.90
25440;DHT22;13365;52.208;5.488;2024-01-25T07:02:00;8.90;99.90
25440;DHT22;13365;52.208;5.488;2024-01-25T07:04:28;9.00;99.90
25440;DHT22;13365;52.208;5.488;2024-01-25T07:06:54;9.00;99.90
25440;DHT22;13365;52.208;5.488;2024-01-25T07:09:19;8.90;99.90
25440;DHT22;13365;52.208;5.488;2024-01-25T07:11:45;8.90;99.90
25440;DHT22;13365;52.208;5.488;2024-01-25T07:14:11;8.90;99.90
25440;DHT22;13365;52.208;5.488;2024-01-25T07:16:36;9.00;99.90
25440;DHT22;13365;52.208;5.488;2024-01-25T07:19:02;8.90;99.90
25440;DHT22;13365;52.208;5.488;2024-01-25T07:21:28;8.70;99.90
25440;DHT22;13365;52.208;5.488;2024-01-25T07:23:59;8.80;99.90
25440;DHT22;13365;52.208;5.488;2024-01-25T07:26:25;8.90;99.90
25440;DHT22;13365;52.208;5.488;2024-01-25T07:28:50;8.80;99.90
25440;DHT22;13365;52.208;5.488;2024-01-25T07:31:19;8.90;99.90
25440;DHT22;13365;52.208;5.488;2024-01-25T07:33:45;9.00;99.90
25440;DHT22;13365;52.208;5.488;2024-01-25T07:36:11;8.80;99.90
25440;DHT22;13365;52.208;5.488;2024-01-25T07:38:36;8.90;99.90
25440;DHT22;13365;52.208;5.488;2024-01-25T07:41:02;9.00;99.90
25440;DHT22;13365;52.208;5.488;2024-01-25T07:43:28;9.00;99.90
25440;DHT22;13365;52.208;5.488;2024-01-25T07:45:53;9.20;99.90
25440;DHT22;13365;52.208;5.488;2024-01-25T07:48:19;9.10;99.90
25440;DHT22;13365;52.208;5.488;2024-01-25T07:50:44;9.00;99.90
25440;DHT22;13365;52.208;5.488;2024-01-25T07:53:10;8.90;99.90
25440;DHT22;13365;52.208;5.488;2024-01-25T07:55:37;8.90;99.90
25440;DHT22;13365;52.208;5.488;2024-01-25T07:58:03;8.90;99.90
25440;DHT22;13365;52.208;5.488;2024-01-25T08:00:28;8.90;99.90
25440;DHT22;13365;52.208;5.488;2024-01-25T08:02:54;9.10;99.90
25440;DHT22;13365;52.208;5.488;2024-01-25T08:05:19;9.10;99.90
25440;DHT22;13365;52.208;5.488;2024-01-25T08:07:45;9.30;99.90
25440;DHT22;13365;52.208;5.488;2024-01-25T08:10:12;9.40;99.90
25440;DHT22;13365;52.208;5.488;2024-01-25T08:12:38;9.40;99.90
25440;DHT22;13365;52.208;5.488;2024-01-25T08:15:06;9.40;99.90
25440;DHT22;13365;52.208;5.488;2024-01-25T08:17:31;9.30;99.90
25440;DHT22;13365;52.208;5.488;2024-01-25T08:19:57;9.40;99.90
25440;DHT22;13365;52.208;5.488;2024-01-25T08:22:22;9.40;99.90
25440;DHT22;13365;52.208;5.488;2024-01-25T08:24:48;9.50;99.90
25440;DHT22;13365;52.208;5.488;2024-01-25T08:27:14;9.60;99.90
25440;DHT22;13365;52.208;5.488;2024-01-25T08:29:39;9.90;99.90
25440;DHT22;13365;52.208;5.488;2024-01-25T08:32:06;9.70;99.90
25440;DHT22;13365;52.208;5.488;2024-01-25T08:34:31;9.80;99.90
25440;DHT22;13365;52.208;5.488;2024-01-25T08:36:57;9.90;99.90
25440;DHT22;13365;52.208;5.488;2024-01-25T08:39:23;10.00;99.90
25440;DHT22;13365;52.208;5.488;2024-01-25T08:41:48;10.10;99.90
25440;DHT22;13365;52.208;5.488;2024-01-25T08:44:15;10.20;99.90
25440;DHT22;13365;52.208;5.488;2024-01-25T08:46:41;10.20;99.90
25440;DHT22;13365;52.208;5.488;2024-01-25T08:49:08;10.10;99.90
25440;DHT22;13365;52.208;5.488;2024-01-25T08:51:35;10.40;99.90
25440;DHT22;13365;52.208;5.488;2024-01-25T08:54:01;10.50;99.90
25440;DHT22;13365;52.208;5.488;2024-01-25T08:56:29;10.50;99.90
25440;DHT22;13365;52.208;5.488;2024-01-25T08:58:54;10.60;99.90
25440;DHT22;13365;52.208;5.488;2024-01-25T09:01:20;10.80;99.90
25440;DHT22;13365;52.208;5.488;2024-01-25T09:03:45;10.80;99.90
25440;DHT22;13365;52.208;5.488;2024-01-25T09:06:11;10.80;99.90
25440;DHT22;13365;52.208;5.488;2024-01-25T09:08:37;10.80;99.90
25440;DHT22;13365;52.208;5.488;2024-01-25T09:11:03;11.00;99.90
25440;DHT22;13365;52.208;5.488;2024-01-25T09:13:29;11.20;99.90
25440;DHT22;13365;52.208;5.488;2024-01-25T09:15:55;11.20;99.90
25440;DHT22;13365;52.208;5.488;2024-01-25T09:18:21;11.40;99.90
25440;DHT22;13365;52.208;5.488;2024-01-25T09:20:46;11.50;99.90
25440;DHT22;13365;52.208;5.488;2024-01-25T09:23:14;11.60;99.90
25440;DHT22;13365;52.208;5.488;2024-01-25T09:25:44;11.80;99.90
25440;DHT22;13365;52.208;5.488;2024-01-25T09:28:10;11.90;99.90
25440;DHT22;13365;52.208;5.488;2024-01-25T09:30:38;12.00;99.90
25440;DHT22;13365;52.208;5.488;2024-01-25T09:33:04;12.00;99.90
25440;DHT22;13365;52.208;5.488;2024-01-25T09:35:30;12.10;99.90
25440;DHT22;13365;52.208;5.488;2024-01-25T09:37:56;12.10;99.90
25440;DHT22;13365;52.208;5.488;2024-01-25T09:40:21;12.20;99.90
25440;DHT22;13365;52.208;5.488;2024-01-25T09:42:47;12.30;99.90
25440;DHT22;13365;52.208;5.488;2024-01-25T09:45:17;12.40;99.90
25440;DHT22;13365;52.208;5.488;2024-01-25T09:47:46;12.40;99.90
25440;DHT22;13365;52.208;5.488;2024-01-25T09:50:12;12.50;99.90
25440;DHT22;13365;52.208;5.488;2024-01-25T09:52:38;12.60;99.90
25440;DHT22;13365;52.208;5.488;2024-01-25T09:55:07;12.70;99.90
25440;DHT22;13365;52.208;5.488;2024-01-25T09:57:35;12.80;99.90
25440;DHT22;13365;52.208;5.488;2024-01-25T10:00:04;12.70;99.90
25440;DHT22;13365;52.208;5.488;2024-01-25T10:02:31;12.80;99.90
25440;DHT22;13365;52.208;5.488;2024-01-25T10:04:56;12.90;99.90
25440;DHT22;13365;52.208;5.488;2024-01-25T10:07:47;13.00;99.90
25440;DHT22;13365;52.208;5.488;2024-01-25T10:10:13;13.00;99.90
25440;DHT22;13365;52.208;5.488;2024-01-25T10:12:42;13.20;99.90
25440;DHT22;13365;52.208;5.488;2024-01-25T10:15:09;13.10;99.90
25440;DHT22;13365;52.208;5.488;2024-01-25T10:17:35;13.00;99.90
25440;DHT22;13365;52.208;5.488;2024-01-25T10:20:04;13.10;99.90
25440;DHT22;13365;52.208;5.488;2024-01-25T10:22:32;13.20;99.90
25440;DHT22;13365;52.208;5.488;2024-01-25T10:24:57;13.10;99.90
25440;DHT22;13365;52.208;5.488;2024-01-25T10:27:23;13.20;99.90
25440;DHT22;13365;52.208;5.488;2024-01-25T10:29:49;13.10;99.90
25440;DHT22;13365;52.208;5.488;2024-01-25T10:32:16;13.30;99.90
25440;DHT22;13365;52.208;5.488;2024-01-25T10:34:43;13.30;99.90
25440;DHT22;13365;52.208;5.488;2024-01-25T10:37:13;13.40;99.90
25440;DHT22;13365;52.208;5.488;2024-01-25T10:39:40;13.50;99.90
25440;DHT22;13365;52.208;5.488;2024-01-25T10:42:06;13.50;99.90
25440;DHT22;13365;52.208;5.488;2024-01-25T10:44:32;13.60;99.90
25440;DHT22;13365;52.208;5.488;2024-01-25T10:46:58;13.70;99.90
25440;DHT22;13365;52.208;5.488;2024-01-25T10:49:24;13.70;99.90
25440;DHT22;13365;52.208;5.488;2024-01-25T10:51:51;13.70;99.90
25440;DHT22;13365;52.208;5.488;2024-01-25T10:54:17;13.90;99.90
25440;DHT22;13365;52.208;5.488;2024-01-25T10:56:43;14.10;99.90
25440;DHT22;13365;52.208;5.488;2024-01-25T10:59:13;14.20;99.90
25440;DHT22;13365;52.208;5.488;2024-01-25T11:01:45;14.40;99.90
25440;DHT22;13365;52.208;5.488;2024-01-25T11:04:18;14.30;99.90
25440;DHT22;13365;52.208;5.488;2024-01-25T11:06:47;14.10;99.90
25440;DHT22;13365;52.208;5.488;2024-01-25T11:09:18;14.40;99.90
25440;DHT22;13365;52.208;5.488;2024-01-25T11:11:49;14.40;99.90
25440;DHT22;13365;52.208;5.488;2024-01-25T11:14:15;14.40;99.90
25440;DHT22;13365;52.208;5.488;2024-01-25T11:16:44;14.40;99.90
25440;DHT22;13365;52.208;5.488;2024-01-25T11:19:17;14.30;99.90
25440;DHT22;13365;52.208;5.488;2024-01-25T11:21:47;14.30;99.90
25440;DHT22;13365;52.208;5.488;2024-01-25T11:24:24;14.10;99.90
25440;DHT22;13365;52.208;5.488;2024-01-25T11:26:54;14.40;99.90
25440;DHT22;13365;52.208;5.488;2024-01-25T11:29:21;14.50;99.90
25440;DHT22;13365;52.208;5.488;2024-01-25T11:31:49;14.50;99.90
25440;DHT22;13365;52.208;5.488;2024-01-25T11:34:15;14.50;99.90
25440;DHT22;13365;52.208;5.488;2024-01-25T11:36:42;14.50;99.90
25440;DHT22;13365;52.208;5.488;2024-01-25T11:39:12;14.60;99.90
25440;DHT22;13365;52.208;5.488;2024-01-25T11:41:38;14.70;99.90
25440;DHT22;13365;52.208;5.488;2024-01-25T11:44:04;14.70;99.90
25440;DHT22;13365;52.208;5.488;2024-01-25T11:46:30;14.70;99.90
25440;DHT22;13365;52.208;5.488;2024-01-25T11:48:57;14.60;99.90
25440;DHT22;13365;52.208;5.488;2024-01-25T11:51:23;14.50;99.90
25440;DHT22;13365;52.208;5.488;2024-01-25T11:53:48;14.60;99.90
25440;DHT22;13365;52.208;5.488;2024-01-25T11:56:17;14.60;99.90
25440;DHT22;13365;52.208;5.488;2024-01-25T11:58:45;14.40;99.90
25440;DHT22;13365;52.208;5.488;2024-01-25T12:01:13;14.50;99.90
25440;DHT22;13365;52.208;5.488;2024-01-25T12:03:40;14.60;99.90
25440;DHT22;13365;52.208;5.488;2024-01-25T12:06:06;14.50;99.90
25440;DHT22;13365;52.208;5.488;2024-01-25T12:08:35;14.60;99.90
25440;DHT22;13365;52.208;5.488;2024-01-25T12:11:10;14.60;99.90
25440;DHT22;13365;52.208;5.488;2024-01-25T12:13:39;14.60;99.90
25440;DHT22;13365;52.208;5.488;2024-01-25T12:16:05;14.70;99.90
25440;DHT22;13365;52.208;5.488;2024-01-25T12:18:31;14.60;99.90
25440;DHT22;13365;52.208;5.488;2024-01-25T12:21:02;14.50;99.90
25440;DHT22;13365;52.208;5.488;2024-01-25T12:23:36;14.50;99.90
25440;DHT22;13365;52.208;5.488;2024-01-25T12:26:08;14.60;99.90
25440;DHT22;13365;52.208;5.488;2024-01-25T12:28:34;14.60;99.90
25440;DHT22;13365;52.208;5.488;2024-01-25T12:31:01;14.80;99.90
25440;DHT22;13365;52.208;5.488;2024-01-25T12:33:27;14.90;99.90
25440;DHT22;13365;52.208;5.488;2024-01-25T12:35:53;14.90;99.90
25440;DHT22;13365;52.208;5.488;2024-01-25T12:38:20;15.00;99.90
25440;DHT22;13365;52.208;5.488;2024-01-25T12:40:47;15.00;99.90
25440;DHT22;13365;52.208;5.488;2024-01-25T12:43:14;15.00;99.90
25440;DHT22;13365;52.208;5.488;2024-01-25T12:45:40;15.20;99.90
25440;DHT22;13365;52.208;5.488;2024-01-25T12:48:06;15.20;99.90
25440;DHT22;13365;52.208;5.488;2024-01-25T12:50:33;15.20;99.90
25440;DHT22;13365;52.208;5.488;2024-01-25T12:52:59;15.20;99.90
25440;DHT22;13365;52.208;5.488;2024-01-25T12:55:25;15.20;99.90
25440;DHT22;13365;52.208;5.488;2024-01-25T12:57:51;15.00;99.90
25440;DHT22;13365;52.208;5.488;2024-01-25T13:00:16;14.80;99.90
25440;DHT22;13365;52.208;5.488;2024-01-25T13:02:42;14.80;99.90
25440;DHT22;13365;52.208;5.488;2024-01-25T13:05:08;14.60;99.90
25440;DHT22;13365;52.208;5.488;2024-01-25T13:07:33;14.50;99.90
25440;DHT22;13365;52.208;5.488;2024-01-25T13:09:59;14.50;99.90
25440;DHT22;13365;52.208;5.488;2024-01-25T13:12:25;14.50;99.90
25440;DHT22;13365;52.208;5.488;2024-01-25T13:14:50;14.50;99.90
25440;DHT22;13365;52.208;5.488;2024-01-25T13:17:16;14.50;99.90
25440;DHT22;13365;52.208;5.488;2024-01-25T13:19:41;14.70;99.90
25440;DHT22;13365;52.208;5.488;2024-01-25T13:22:07;14.60;99.90
25440;DHT22;13365;52.208;5.488;2024-01-25T13:24:32;14.60;99.90
25440;DHT22;13365;52.208;5.488;2024-01-25T13:26:58;14.60;99.90
25440;DHT22;13365;52.208;5.488;2024-01-25T13:29:23;14.60;99.90
25440;DHT22;13365;52.208;5.488;2024-01-25T13:31:49;14.50;99.90
25440;DHT22;13365;52.208;5.488;2024-01-25T13:34:15;14.40;99.90
25440;DHT22;13365;52.208;5.488;2024-01-25T13:36:40;14.40;99.90
25440;DHT22;13365;52.208;5.488;2024-01-25T13:39:06;14.40;99.90
25440;DHT22;13365;52.208;5.488;2024-01-25T13:41:32;14.30;99.90
25440;DHT22;13365;52.208;5.488;2024-01-25T13:43:58;14.30;99.90
25440;DHT22;13365;52.208;5.488;2024-01-25T13:46:23;14.20;99.90
25440;DHT22;13365;52.208;5.488;2024-01-25T13:48:49;14.40;99.90
25440;DHT22;13365;52.208;5.488;2024-01-25T13:51:14;14.40;99.90
25440;DHT22;13365;52.208;5.488;2024-01-25T13:53:41;14.30;99.90
25440;DHT22;13365;52.208;5.488;2024-01-25T13:56:06;14.30;99.90
25440;DHT22;13365;52.208;5.488;2024-01-25T13:58:33;14.40;99.90
25440;DHT22;13365;52.208;5.488;2024-01-25T14:00:58;14.50;99.90
25440;DHT22;13365;52.208;5.488;2024-01-25T14:03:24;14.30;99.90
25440;DHT22;13365;52.208;5.488;2024-01-25T14:05:49;14.20;99.90
25440;DHT22;13365;52.208;5.488;2024-01-25T14:08:15;14.30;99.90
25440;DHT22;13365;52.208;5.488;2024-01-25T14:10:41;14.40;99.90
25440;DHT22;13365;52.208;5.488;2024-01-25T14:13:07;14.60;99.90
25440;DHT22;13365;52.208;5.488;2024-01-25T14:15:33;14.60;99.90
25440;DHT22;13365;52.208;5.488;2024-01-25T14:17:59;14.70;99.90
25440;DHT22;13365;52.208;5.488;2024-01-25T14:20:24;14.60;99.90
25440;DHT22;13365;52.208;5.488;2024-01-25T14:22:50;14.80;99.90
25440;DHT22;13365;52.208;5.488;2024-01-25T14:25:16;14.70;99.90
25440;DHT22;13365;52.208;5.488;2024-01-25T14:27:42;14.70;99.90
25440;DHT22;13365;52.208;5.488;2024-01-25T14:30:08;14.90;99.90
25440;DHT22;13365;52.208;5.488;2024-01-25T14:32:33;14.70;99.90
25440;DHT22;13365;52.208;5.488;2024-01-25T14:34:59;14.50;99.90
25440;DHT22;13365;52.208;5.488;2024-01-25T14:37:25;14.50;99.90
25440;DHT22;13365;52.208;5.488;2024-01-25T14:39:50;14.60;99.90
25440;DHT22;13365;52.208;5.488;2024-01-25T14:42:16;14.60;99.90
25440;DHT22;13365;52.208;5.488;2024-01-25T14:44:44;14.50;99.90
25440;DHT22;13365;52.208;5.488;2024-01-25T14:47:10;14.40;99.90
25440;DHT22;13365;52.208;5.488;2024-01-25T14:49:37;14.40;99.90
25440;DHT22;13365;52.208;5.488;2024-01-25T14:52:05;14.20;99.90
25440;DHT22;13365;52.208;5.488;2024-01-25T14:54:30;14.00;99.90
25440;DHT22;13365;52.208;5.488;2024-01-25T14:56:56;13.90;99.90
25440;DHT22;13365;52.208;5.488;2024-01-25T14:59:22;13.90;99.90
25440;DHT22;13365;52.208;5.488;2024-01-25T15:01:47;14.00;99.90
25440;DHT22;13365;52.208;5.488;2024-01-25T15:04:13;14.00;99.90
25440;DHT22;13365;52.208;5.488;2024-01-25T15:06:41;14.00;99.90
25440;DHT22;13365;52.208;5.488;2024-01-25T15:09:07;13.70;99.90
25440;DHT22;13365;52.208;5.488;2024-01-25T15:11:33;13.40;99.90
25440;DHT22;13365;52.208;5.488;2024-01-25T15:13:58;13.30;99.90
25440;DHT22;13365;52.208;5.488;2024-01-25T15:16:25;13.40;99.90
25440;DHT22;13365;52.208;5.488;2024-01-25T15:18:50;13.40;99.90
25440;DHT22;13365;52.208;5.488;2024-01-25T15:21:16;13.50;99.90
25440;DHT22;13365;52.208;5.488;2024-01-25T15:23:41;13.40;99.90
25440;DHT22;13365;52.208;5.488;2024-01-25T15:26:07;13.40;99.90
25440;DHT22;13365;52.208;5.488;2024-01-25T15:28:32;13.50;99.90